TimeCST,TemperatureF,Dew PointF,Humidity,Sea Level PressureIn,VisibilityMPH,Wind Direction,Wind SpeedMPH,Gust SpeedMPH,PrecipitationIn,Events,Conditions,WindDirDegrees,DateUTC
12:41 AM,69.8,60.8,73,30.08,10.0,SE,15.0,23.0,N/A,,Overcast,140,2013-03-08 06:41:00
12:56 AM,68.9,61.9,78,30.05,10.0,SE,13.8,-,N/A,,Overcast,140,2013-03-08 06:56:00
1:28 AM,69.8,60.8,73,30.08,10.0,SE,12.7,-,N/A,,Overcast,140,2013-03-08 07:28:00
1:56 AM,68.9,61.9,78,30.05,10.0,SE,12.7,-,N/A,,Overcast,140,2013-03-08 07:56:00
2:36 AM,69.8,60.8,73,30.05,10.0,SE,13.8,-,N/A,,Overcast,140,2013-03-08 08:36:00
2:56 AM,68.9,61.0,76,30.02,10.0,SSE,15.0,-,N/A,,Mostly Cloudy,160,2013-03-08 08:56:00
3:06 AM,69.8,60.8,73,30.05,10.0,SSE,15.0,-,N/A,,Mostly Cloudy,150,2013-03-08 09:06:00
3:28 AM,69.8,60.8,73,30.05,10.0,SSE,11.5,-,N/A,,Scattered Clouds,150,2013-03-08 09:28:00
3:56 AM,66.9,61.0,81,30.01,10.0,SE,8.1,-,N/A,,Unknown,130,2013-03-08 09:56:00
4:56 AM,66.9,61.0,81,30.00,10.0,SE,9.2,-,N/A,,Scattered Clouds,140,2013-03-08 10:56:00
5:48 AM,66.2,60.8,83,30.04,10.0,SSE,6.9,-,N/A,,Mostly Cloudy,150,2013-03-08 11:48:00
5:56 AM,66.9,61.9,84,30.01,10.0,SSE,9.2,-,N/A,,Mostly Cloudy,150,2013-03-08 11:56:00
6:35 AM,66.2,62.6,88,30.04,10.0,SSE,9.2,-,N/A,,Scattered Clouds,150,2013-03-08 12:35:00
6:56 AM,68.0,61.9,81,30.02,10.0,SSE,8.1,-,N/A,,Clear,150,2013-03-08 12:56:00
7:56 AM,68.0,61.9,81,30.03,10.0,SE,8.1,-,N/A,,Clear,140,2013-03-08 13:56:00
8:56 AM,68.9,59.9,73,30.04,10.0,SE,11.5,-,N/A,,Clear,140,2013-03-08 14:56:00
9:56 AM,72.9,59.9,64,30.04,10.0,SSE,15.0,-,N/A,,Partly Cloudy,160,2013-03-08 15:56:00
10:56 AM,75.9,59.9,57,30.02,10.0,SSE,13.8,-,N/A,,Partly Cloudy,160,2013-03-08 16:56:00
11:56 AM,77.0,57.9,52,30.01,10.0,South,19.6,23.0,N/A,,Mostly Cloudy,180,2013-03-08 17:56:00
12:56 PM,79.0,59.0,50,29.98,10.0,South,17.3,-,N/A,,Mostly Cloudy,170,2013-03-08 18:56:00
1:56 PM,77.9,59.0,52,29.96,10.0,South,13.8,-,N/A,,Mostly Cloudy,170,2013-03-08 19:56:00
2:56 PM,79.0,59.0,50,29.95,10.0,SSE,13.8,-,N/A,,Mostly Cloudy,150,2013-03-08 20:56:00
3:56 PM,79.9,59.9,50,29.94,9.0,SE,12.7,-,N/A,,Scattered Clouds,140,2013-03-08 21:56:00
4:56 PM,79.0,61.0,54,29.94,9.0,SSE,16.1,-,N/A,,Scattered Clouds,150,2013-03-08 22:56:00
5:56 PM,79.0,59.9,52,29.91,10.0,SE,19.6,26.5,N/A,,Clear,130,2013-03-08 23:56:00
6:56 PM,77.0,61.0,58,29.94,10.0,SE,21.9,28.8,N/A,,Clear,140,2013-03-09 00:56:00
7:56 PM,72.9,63.0,71,29.96,10.0,SE,17.3,-,N/A,,Clear,130,2013-03-09 01:56:00
8:56 PM,72.0,63.0,73,29.96,10.0,SE,20.7,-,N/A,,Clear,140,2013-03-09 02:56:00
9:56 PM,72.0,63.0,73,29.96,10.0,SE,19.6,24.2,N/A,,Partly Cloudy,140,2013-03-09 03:56:00
10:44 PM,71.6,62.6,73,29.98,10.0,SSE,18.4,-,N/A,,Mostly Cloudy,150,2013-03-09 04:44:00
10:56 PM,70.9,63.0,76,29.94,10.0,SSE,16.1,26.5,N/A,,Overcast,150,2013-03-09 04:56:00
11:56 PM,72.0,63.0,73,29.94,10.0,SSE,17.3,-,N/A,,Overcast,160,2013-03-09 05:56:00